Rockford, Ohio
Current Conditions -  °F | °C
As of 10:13 PM on Thursday 18 Dec 2014 (Local Time) from KAXV Reporting Station
Overcast Overcast  
Wind Chill: 28°   Ceiling: 2500
Heat Index: 28°   Visibility: 10mi
Dew Point: 25°   Wind: 3mph
Humidity: 86%   Direction: 290°WNW
Pressure: 30.22"   Gusts: NA
Location:  40.69°N, 84.65°W
Report Text: KAXV 190313Z AUTO 29003KT 10SM OVC025 M02/M04 A3022 RMK AO2
Loading
Personal Weather Stations






























Interactive Weather Map New forecast layout! Learn more

10-Day Weather Forecast

Advertisements
Track Severe Weather on mobile